Walla Walla, WA

1:18 AM PDT on September 20, 2014 (GMT -0700)
Whitman | Change Station
CLOSE
Current Station
Personal Weather Station
Location: Walla Walla, WA
Elevation: 994 ft
Nearby Weather Stations

Elev 994 ft 46.07 °N, 118.33 °W | Updated 2 minutes ago

Clear
Clear
66.3 °F
Feels Like 66.3 °F
N
0.0
Wind Variable Wind from SE
Gusts 4.0 mph

Today
High -- | Low -- °F
--% Chance of Precip.
Yesterday
High -- | Low -- °F
Precip. -- in
6:37 AM 6:54 PM
Waning Crescent, 14% visible
Pressure 30.04 in
Visibility 10.0 miles
Clouds Clear
Dew Point 49 °F
Humidity 54%
Rainfall 0.00 in
Snow Depth Not available.
UV 0 out of 12
Pollen 5.40 out of 12
Air Quality Not available.
Flu Activity Not available.
METAR KALW 200753Z AUTO 10005KT 10SM CLR 16/07 A3006 RMK AO2 SLP172 T01610072 402830156

More Conditions Fewer Conditions

Pressure 30.04 in
Visibility 10.0 miles
Clouds Clear
Dew Point 49 °F
Humidity 54%
Rainfall 0.00 in
Snow Depth Not available.
UV 0 out of 12
Pollen 5.40 out of 12
Air Quality Not available.
Flu Activity Not available.
METAR KALW 200753Z AUTO 10005KT 10SM CLR 16/07 A3006 RMK AO2 SLP172 T01610072 402830156

More Conditions Fewer Conditions

10-Day Weather Forecast

Almanac

Astronomy

Sep. 20, 2014 Rise Set
Actual Time 6:37 AM PDT 6:54 PM PDT
Civil Twilight 6:07 AM PDT 7:24 PM PDT
Nautical Twilight 5:32 AM PDT 7:59 PM PDT
Astronomical Twilight 4:56 AM PDT 8:35 PM PDT
Moon 3:12 AM PDT 5:07 PM PDT
Length of Visible Light 13h 16m
Length of Day
12h 16m
Tomorrow will be 3m 14s shorter.
Waning Crescent, 14% of the Moon is Illuminated
Today
Waning Crescent
Sep 24
New
Oct 1
First Quarter
Oct 8
Full
Oct 15
Last Quarter

Today's Extremes

State Highs State Lows

Community

WunderPhotos

Upload Photos

1,754,793 photos uploaded!

WunderBlogs® & News

Nearby

Snow Depth

Station Depth Elevation
Mount Gardner 0 in 3000 ft
Spruce Springs 1 in 5700 ft
Spencer Meadow 0 in 3400 ft
Meadows Pass 0 in 3500 ft
Dungeness 0 in 4100 ft

Earthquake Activity

City Distance Mag. Time & Date
No recent earthquake activity has been reported nearby.
Minimum magnitude displayed is 2.5.

Coastal Water Temperatures

Place Temperature
No Stations Reporting

Nearby Weather Stations